Pagina principale
METAR-TAF:

METAR-TAF

Aeroporti :

Le Luc, Francia

latitudine: 43-23N, longitudine: 006-23E, altezza: 80 m

Osservazione

Il bollettino è stato emesso 41 minuti fa, alle 01:30 UTC
Vento 5 kt da est, variando fra est/nord-est e sud-est
Temperature 9°C
Umidità 87%
Pressione 1023 hPa
Visibilità 10 km o più

METAR: LFMC 240130Z AUTO 10005KT 060V140 9999 ////// 09/07 Q1023

Ora: 03:11 (02:11 UTC)


TAF: mancante

Osservazioni e previsioni meteorologiche di più di 4000 aeroporti (messaggi METAR e TAF).

Le stazioni disponibili sono rappresentate dai dischi gialli e rossi sulla carta.

Puntare il mouse per vedere il nome della stazione.

Clicca sopra per visualizzare le osservazioni e previsioni meteorologiche.

Per cambiare la mappa : fare clic sui pulsanti verdi con una croce nera per ingrandire, il pulsante verde con un trattino per diminuire, o sulla freccia verde per le mappe adiacenti.


METAR-TAF: